createdAt,value
2018-12-13T00:00:59.318Z,13.30
2018-12-13T00:03:31.889Z,14.75
2018-12-13T00:06:04.898Z,14.10
2018-12-13T00:08:35.746Z,15.28
2018-12-13T00:11:06.600Z,13.55
2018-12-13T00:13:37.449Z,14.50
2018-12-13T00:16:08.841Z,9.48
2018-12-13T00:18:39.785Z,12.98
2018-12-13T00:21:10.768Z,15.03
2018-12-13T00:23:41.909Z,13.20
2018-12-13T00:26:12.798Z,12.25
2018-12-13T00:28:43.841Z,10.98
2018-12-13T00:31:14.699Z,13.48
2018-12-13T00:33:45.633Z,11.60
2018-12-13T00:36:17.581Z,12.10
2018-12-13T00:38:48.534Z,11.48
2018-12-13T00:41:19.471Z,10.08
2018-12-13T00:43:50.404Z,11.10
2018-12-13T00:46:21.341Z,15.32
2018-12-13T00:48:52.316Z,12.43
2018-12-13T00:51:23.225Z,9.65
2018-12-13T00:53:54.133Z,13.32
2018-12-13T00:56:25.006Z,15.05
2018-12-13T00:58:55.931Z,27.65
2018-12-13T01:01:27.086Z,10.78
2018-12-13T01:03:57.949Z,13.35
2018-12-13T01:06:29.653Z,12.45
2018-12-13T01:09:00.586Z,16.02
2018-12-13T01:11:32.278Z,20.05
2018-12-13T01:14:03.178Z,13.98
2018-12-13T01:16:34.029Z,13.20
2018-12-13T01:19:04.950Z,12.15
2018-12-13T01:21:35.805Z,13.25
2018-12-13T01:24:06.738Z,12.80
2018-12-13T01:26:37.614Z,10.28
2018-12-13T01:29:08.508Z,12.05
2018-12-13T01:31:39.353Z,10.78
2018-12-13T01:34:10.288Z,12.58
2018-12-13T01:36:41.208Z,12.98
2018-12-13T01:39:12.167Z,12.23
2018-12-13T01:41:43.175Z,11.80
2018-12-13T01:44:14.019Z,13.15
2018-12-13T01:46:45.081Z,14.33
2018-12-13T01:49:16.239Z,11.63
2018-12-13T01:51:47.157Z,12.65
2018-12-13T01:54:18.426Z,12.28
2018-12-13T01:56:49.320Z,13.80
2018-12-13T01:59:20.304Z,16.70
2018-12-13T02:01:51.511Z,13.13
2018-12-13T02:04:22.686Z,15.50
2018-12-13T02:06:58.730Z,14.85
2018-12-13T02:09:26.497Z,12.82
2018-12-13T02:11:57.470Z,15.93
2018-12-13T02:14:30.014Z,13.38
2018-12-13T02:17:00.934Z,14.28
2018-12-13T02:19:31.993Z,19.05
2018-12-13T02:22:03.319Z,15.53
2018-12-13T02:24:34.290Z,14.80
2018-12-13T02:27:06.518Z,13.50
2018-12-13T02:29:37.386Z,17.85
2018-12-13T02:32:08.318Z,15.05
2018-12-13T02:34:40.072Z,15.00
2018-12-13T02:37:11.010Z,14.03
2018-12-13T02:39:41.945Z,15.08
2018-12-13T02:42:13.715Z,14.58
2018-12-13T02:44:44.650Z,15.75
2018-12-13T02:47:15.597Z,19.15
2018-12-13T02:49:46.519Z,13.90
2018-12-13T02:52:17.729Z,16.80
2018-12-13T02:54:48.607Z,16.85
2018-12-13T02:57:19.528Z,17.00
2018-12-13T02:59:50.490Z,16.67
2018-12-13T03:02:21.410Z,17.75
2018-12-13T03:04:52.570Z,17.45
2018-12-13T03:07:23.479Z,17.45
2018-12-13T03:09:55.660Z,16.67
2018-12-13T03:12:26.483Z,14.23
2018-12-13T03:14:57.651Z,15.93
2018-12-13T03:17:28.558Z,17.30
2018-12-13T03:19:59.430Z,15.55
2018-12-13T03:22:30.541Z,14.83
2018-12-13T03:25:01.562Z,17.77
2018-12-13T03:27:32.738Z,16.55
2018-12-13T03:30:03.671Z,16.05
2018-12-13T03:32:34.838Z,16.10
2018-12-13T03:35:07.592Z,16.30
2018-12-13T03:37:39.510Z,17.42
2018-12-13T03:40:10.880Z,19.62
2018-12-13T03:42:41.747Z,14.63
2018-12-13T03:45:13.289Z,16.73
2018-12-13T03:47:44.247Z,18.80
2018-12-13T03:50:15.988Z,16.70
2018-12-13T03:52:46.925Z,16.65
2018-12-13T03:55:17.755Z,14.60
2018-12-13T03:57:48.606Z,17.40
2018-12-13T04:00:19.941Z,20.90
2018-12-13T04:02:50.898Z,15.03
2018-12-13T04:05:21.796Z,17.35
2018-12-13T04:07:52.779Z,13.88
2018-12-13T04:10:23.931Z,20.25
2018-12-13T04:12:54.862Z,17.52
2018-12-13T04:15:25.754Z,18.50
2018-12-13T04:17:57.342Z,18.42
2018-12-13T04:20:29.885Z,19.17
2018-12-13T04:23:00.758Z,17.48
2018-12-13T04:25:31.844Z,16.32
2018-12-13T04:28:02.747Z,17.20
2018-12-13T04:30:34.781Z,19.90
2018-12-13T04:33:05.767Z,17.25
2018-12-13T04:35:36.650Z,18.15
2018-12-13T04:38:07.842Z,16.75
2018-12-13T04:40:38.694Z,18.65
2018-12-13T04:43:09.585Z,17.37
2018-12-13T04:45:40.567Z,16.97
2018-12-13T04:48:11.446Z,17.87
2018-12-13T04:50:42.802Z,17.87
2018-12-13T04:53:13.771Z,19.37
2018-12-13T04:55:44.674Z,18.70
2018-12-13T04:58:15.614Z,16.12
2018-12-13T05:00:46.590Z,18.00
2018-12-13T05:03:17.475Z,16.65
2018-12-13T05:05:48.426Z,17.92
2018-12-13T05:08:19.353Z,17.48
2018-12-13T05:10:55.231Z,17.15
2018-12-13T05:13:26.145Z,16.25
2018-12-13T05:15:57.101Z,20.27
2018-12-13T05:18:28.074Z,16.52
2018-12-13T05:20:59.021Z,17.87
2018-12-13T05:23:29.906Z,15.55
2018-12-13T05:26:00.852Z,17.57
2018-12-13T05:28:32.198Z,17.50
2018-12-13T05:31:03.061Z,17.90
2018-12-13T05:33:34.300Z,21.48
2018-12-13T05:36:05.401Z,18.48
2018-12-13T05:38:36.282Z,18.05
2018-12-13T05:41:07.121Z,17.82
2018-12-13T05:43:38.023Z,16.50
2018-12-13T05:46:08.970Z,17.77
2018-12-13T05:48:40.226Z,21.05
2018-12-13T05:51:11.169Z,17.98
2018-12-13T05:53:42.082Z,19.62
2018-12-13T05:56:13.509Z,20.72
2018-12-13T05:58:44.382Z,20.23
2018-12-13T06:01:15.326Z,20.00
2018-12-13T06:03:46.312Z,24.67
2018-12-13T06:06:17.333Z,23.07
2018-12-13T06:08:48.755Z,25.30
2018-12-13T06:11:19.670Z,25.32
2018-12-13T06:13:56.948Z,21.35
2018-12-13T06:16:27.969Z,20.02
2018-12-13T06:18:59.232Z,23.50
2018-12-13T06:21:36.559Z,21.00
2018-12-13T06:24:03.289Z,25.15
2018-12-13T06:26:34.146Z,23.77
2018-12-13T06:29:05.565Z,22.67
2018-12-13T06:31:36.475Z,22.22
2018-12-13T06:34:07.946Z,21.33
2018-12-13T06:36:38.877Z,21.00
2018-12-13T06:39:10.552Z,20.27
2018-12-13T06:41:41.480Z,23.00
2018-12-13T06:44:12.398Z,18.37
2018-12-13T06:46:43.442Z,22.85
2018-12-13T06:49:14.393Z,19.60
2018-12-13T06:51:45.329Z,20.10
2018-12-13T06:54:16.361Z,20.43
2018-12-13T06:56:47.309Z,21.30
2018-12-13T06:59:18.230Z,19.90
2018-12-13T07:01:49.186Z,21.33
2018-12-13T07:04:20.109Z,24.43
2018-12-13T07:06:51.162Z,20.85
2018-12-13T07:09:22.001Z,22.58
2018-12-13T07:11:52.946Z,20.68
2018-12-13T07:14:23.839Z,24.95
2018-12-13T07:16:56.345Z,20.23
2018-12-13T07:19:27.281Z,21.27
2018-12-13T07:21:58.233Z,18.95
2018-12-13T07:24:29.256Z,21.15
2018-12-13T07:27:00.193Z,24.32
2018-12-13T07:29:32.173Z,21.45
2018-12-13T07:32:03.101Z,18.52
2018-12-13T07:34:34.121Z,23.95
2018-12-13T07:37:05.480Z,21.77
2018-12-13T07:39:36.441Z,20.62
2018-12-13T07:42:07.761Z,22.73
2018-12-13T07:44:38.750Z,23.30
2018-12-13T07:47:09.645Z,23.55
2018-12-13T07:49:40.589Z,21.25
2018-12-13T07:52:11.519Z,23.85
2018-12-13T07:54:42.669Z,25.45
2018-12-13T07:57:13.554Z,23.47
2018-12-13T07:59:44.429Z,22.25
2018-12-13T08:02:15.378Z,25.05
2018-12-13T08:04:46.322Z,22.32
2018-12-13T08:07:17.257Z,25.68
2018-12-13T08:09:48.113Z,25.40
2018-12-13T08:12:19.442Z,23.38
2018-12-13T08:14:50.287Z,26.05
2018-12-13T08:17:21.312Z,22.73
2018-12-13T08:19:54.087Z,26.50
2018-12-13T08:22:25.038Z,27.10
2018-12-13T08:24:55.882Z,25.72
2018-12-13T08:27:26.822Z,24.95
2018-12-13T08:29:57.660Z,24.90
2018-12-13T08:32:29.109Z,22.40
2018-12-13T08:35:00.018Z,22.62
2018-12-13T08:37:30.978Z,23.83
2018-12-13T08:40:02.018Z,25.50
2018-12-13T08:42:34.167Z,24.72
2018-12-13T08:45:06.434Z,22.37
2018-12-13T08:47:37.274Z,24.47
2018-12-13T08:50:09.302Z,21.85
2018-12-13T08:52:40.173Z,23.30
2018-12-13T08:55:11.126Z,24.47
2018-12-13T08:57:42.073Z,26.60
2018-12-13T09:00:13.418Z,27.90
2018-12-13T09:02:44.278Z,25.17
2018-12-13T09:05:15.199Z,22.37
2018-12-13T09:07:46.193Z,26.85
2018-12-13T09:10:17.051Z,27.85
2018-12-13T09:12:47.987Z,26.62
2018-12-13T09:15:19.840Z,27.17
2018-12-13T09:17:51.091Z,28.70
2018-12-13T09:20:22.121Z,28.83
2018-12-13T09:22:53.086Z,26.87
2018-12-13T09:25:24.221Z,23.65
2018-12-13T09:27:55.161Z,28.32
2018-12-13T09:30:26.086Z,26.35
2018-12-13T09:32:57.050Z,27.25
2018-12-13T09:35:27.897Z,26.12
2018-12-13T09:37:58.962Z,25.25
2018-12-13T09:40:29.834Z,26.23
2018-12-13T09:43:00.809Z,28.00
2018-12-13T09:45:31.724Z,27.22
2018-12-13T09:48:02.661Z,30.68
2018-12-13T09:50:33.579Z,28.40
2018-12-13T09:53:04.543Z,27.73
2018-12-13T09:55:35.394Z,25.27
2018-12-13T09:58:06.618Z,33.30
2018-12-13T10:00:37.577Z,24.82
2018-12-13T10:03:08.770Z,27.52
2018-12-13T10:05:39.645Z,27.00
2018-12-13T10:08:10.510Z,27.00
2018-12-13T10:10:41.428Z,26.05
2018-12-13T10:13:12.317Z,24.20
2018-12-13T10:15:43.588Z,30.92
2018-12-13T10:18:15.805Z,28.85
2018-12-13T10:20:46.944Z,26.52
2018-12-13T10:23:17.825Z,25.80
2018-12-13T10:25:49.069Z,28.47
2018-12-13T10:28:19.914Z,29.18
2018-12-13T10:30:50.868Z,34.27
2018-12-13T10:33:21.712Z,23.07
2018-12-13T10:35:52.574Z,26.27
2018-12-13T10:38:23.449Z,25.17
2018-12-13T10:40:54.542Z,28.65
2018-12-13T10:43:25.642Z,27.48
2018-12-13T10:45:57.078Z,28.45
2018-12-13T10:48:27.946Z,32.35
2018-12-13T10:50:58.778Z,25.30
2018-12-13T10:53:30.739Z,29.55
2018-12-13T10:56:01.746Z,30.05
2018-12-13T10:58:32.733Z,28.32
2018-12-13T11:01:08.886Z,26.42
2018-12-13T11:03:39.727Z,27.70
2018-12-13T11:06:10.642Z,29.00
2018-12-13T11:08:41.601Z,27.75
2018-12-13T11:11:12.509Z,26.65
2018-12-13T11:13:43.453Z,25.08
2018-12-13T11:16:14.491Z,27.15
2018-12-13T11:18:45.437Z,26.65
2018-12-13T11:21:17.471Z,28.23
2018-12-13T11:23:48.845Z,31.27
2018-12-13T11:26:19.894Z,28.57
2018-12-13T11:30:35.133Z,28.85
2018-12-13T11:33:06.315Z,26.60
2018-12-13T11:35:37.263Z,27.48
2018-12-13T11:38:09.356Z,30.25
2018-12-13T11:40:40.310Z,36.30
2018-12-13T11:43:11.431Z,28.73
2018-12-13T11:45:42.506Z,33.78
2018-12-13T11:48:13.401Z,33.63
2018-12-13T11:50:44.304Z,30.20
2018-12-13T11:53:15.270Z,32.10
2018-12-13T11:55:47.314Z,33.70
2018-12-13T11:58:18.840Z,27.40
2018-12-13T12:00:49.701Z,29.40
2018-12-13T12:03:20.666Z,32.48
2018-12-13T12:05:51.665Z,32.30
2018-12-13T12:08:23.656Z,30.35
2018-12-13T12:10:54.613Z,31.48
2018-12-13T12:13:25.521Z,32.78
2018-12-13T12:15:56.874Z,28.65
2018-12-13T12:18:28.033Z,31.55
2018-12-13T12:20:58.942Z,38.95
2018-12-13T12:23:29.901Z,56.20
2018-12-13T12:26:00.850Z,34.75
2018-12-13T12:28:31.762Z,27.82
2018-12-13T12:31:02.704Z,39.18
2018-12-13T12:33:33.634Z,33.60
2018-12-13T12:36:04.625Z,29.12
2018-12-13T12:38:35.838Z,31.02
2018-12-13T12:41:06.898Z,30.32
2018-12-13T12:43:38.091Z,29.27
2018-12-13T12:46:08.973Z,31.33
2018-12-13T12:48:39.846Z,31.62
2018-12-13T12:51:10.791Z,29.20
2018-12-13T12:53:41.662Z,25.45
2018-12-13T12:56:12.537Z,29.98
2018-12-13T12:58:43.434Z,29.92
2018-12-13T13:01:14.302Z,29.23
2018-12-13T13:03:45.141Z,33.10
2018-12-13T13:06:16.222Z,28.73
2018-12-13T13:08:47.309Z,31.52
2018-12-13T13:11:18.203Z,27.85
2018-12-13T13:13:49.593Z,28.98
2018-12-13T13:16:20.606Z,33.45
2018-12-13T13:18:51.570Z,30.23
2018-12-13T13:21:22.477Z,25.50
2018-12-13T13:23:53.645Z,24.57
2018-12-13T13:26:24.562Z,27.87
2018-12-13T13:28:55.518Z,27.07
2018-12-13T13:31:26.427Z,26.50
2018-12-13T13:33:57.410Z,39.65
2018-12-13T13:36:29.143Z,30.48
2018-12-13T13:39:00.089Z,42.00
2018-12-13T13:41:31.002Z,31.80
2018-12-13T13:44:01.974Z,41.08
2018-12-13T13:46:32.815Z,31.65
2018-12-13T13:49:03.787Z,29.92
2018-12-13T13:51:35.298Z,27.25
2018-12-13T13:54:06.423Z,29.57
2018-12-13T13:56:37.353Z,28.02
2018-12-13T13:59:08.718Z,27.70
2018-12-13T14:01:39.622Z,27.15
2018-12-13T14:06:46.762Z,25.90
2018-12-13T14:09:17.690Z,27.35
2018-12-13T14:11:48.630Z,26.12
2018-12-13T14:14:19.549Z,23.77
2018-12-13T14:16:50.622Z,25.75
2018-12-13T14:19:21.547Z,26.85
2018-12-13T14:21:53.468Z,26.17
2018-12-13T14:24:24.631Z,26.50
2018-12-13T14:26:55.890Z,26.35
2018-12-13T14:29:26.923Z,24.67
2018-12-13T14:31:58.136Z,25.52
2018-12-13T14:34:28.986Z,24.35
2018-12-13T14:37:00.234Z,23.98
2018-12-13T14:39:31.167Z,28.40
2018-12-13T14:42:05.243Z,24.98
2018-12-13T14:44:43.651Z,27.45
2018-12-13T14:47:14.600Z,26.02
2018-12-13T14:49:45.650Z,24.63
2018-12-13T14:52:16.657Z,23.55
2018-12-13T14:54:47.577Z,30.32
2018-12-13T14:57:18.722Z,28.00
2018-12-13T14:59:50.135Z,24.85
2018-12-13T15:02:21.206Z,23.98
2018-12-13T15:04:54.399Z,27.95
2018-12-13T15:07:25.339Z,26.52
2018-12-13T15:09:56.682Z,30.72
2018-12-13T15:12:27.607Z,26.20
2018-12-13T15:14:58.594Z,24.95
2018-12-13T15:17:29.482Z,26.05
2018-12-13T15:20:00.518Z,24.07
2018-12-13T15:22:31.440Z,25.62
2018-12-13T15:25:04.383Z,24.12
2018-12-13T15:27:35.569Z,25.48
2018-12-13T15:30:10.178Z,26.55
2018-12-13T15:32:41.017Z,26.77
2018-12-13T15:35:12.644Z,22.35
2018-12-13T15:37:43.737Z,22.50
2018-12-13T15:40:14.702Z,25.88
2018-12-13T15:42:45.582Z,24.07
2018-12-13T15:45:17.206Z,23.00
2018-12-13T15:47:48.134Z,23.02
2018-12-13T15:50:19.308Z,24.63
2018-12-13T15:52:52.614Z,24.72
2018-12-13T15:55:23.478Z,27.85
2018-12-13T15:57:55.057Z,24.10
2018-12-13T16:00:26.010Z,25.17
2018-12-13T16:02:57.360Z,23.35
2018-12-13T16:05:28.383Z,21.70
2018-12-13T16:07:59.408Z,26.97
2018-12-13T16:10:31.493Z,25.15
2018-12-13T16:13:02.736Z,24.05
2018-12-13T16:15:34.150Z,21.85
2018-12-13T16:18:05.522Z,28.10
2018-12-13T16:20:36.879Z,29.15
2018-12-13T16:23:07.746Z,24.02
2018-12-13T16:25:38.671Z,26.65
2018-12-13T16:28:09.714Z,25.32
2018-12-13T16:30:40.716Z,24.18
2018-12-13T16:33:12.818Z,24.45
2018-12-13T16:35:43.737Z,25.05
2018-12-13T16:38:14.723Z,24.00
2018-12-13T16:40:46.006Z,23.42
2018-12-13T16:43:17.273Z,25.82
2018-12-13T16:45:48.185Z,22.17
2018-12-13T16:48:19.128Z,26.35
2018-12-13T16:50:50.281Z,43.63
2018-12-13T16:53:21.249Z,24.30
2018-12-13T16:55:52.162Z,22.93
2018-12-13T16:58:23.037Z,22.48
2018-12-13T17:00:54.049Z,22.10
2018-12-13T17:03:38.662Z,21.15
2018-12-13T17:08:58.931Z,23.38
2018-12-13T17:11:29.832Z,22.50
2018-12-13T17:14:00.738Z,22.00
2018-12-13T17:16:31.610Z,22.45
2018-12-13T17:19:02.461Z,24.25
2018-12-13T17:21:33.343Z,22.07
2018-12-13T17:24:04.237Z,20.27
2018-12-13T17:26:35.126Z,20.08
2018-12-13T17:29:06.176Z,22.98
2018-12-13T17:31:37.014Z,21.05
2018-12-13T17:34:07.878Z,20.32
2018-12-13T17:36:40.042Z,23.05
2018-12-13T17:39:11.341Z,26.93
2018-12-13T17:41:42.212Z,22.17
2018-12-13T17:44:13.077Z,23.32
2018-12-13T17:46:43.985Z,25.55
2018-12-13T17:49:15.272Z,30.88
2018-12-13T17:51:46.305Z,29.90
2018-12-13T17:54:17.167Z,27.45
2018-12-13T17:56:49.438Z,23.18
2018-12-13T17:59:22.446Z,22.73
2018-12-13T18:01:53.433Z,25.32
2018-12-13T18:04:24.340Z,26.77
2018-12-13T18:06:55.218Z,26.23
2018-12-13T18:09:26.110Z,23.87
2018-12-13T18:11:57.134Z,22.62
2018-12-13T18:14:28.093Z,21.40
2018-12-13T18:17:00.994Z,25.77
2018-12-13T18:19:31.914Z,24.80
2018-12-13T18:22:02.941Z,24.30
2018-12-13T18:24:33.890Z,25.45
2018-12-13T18:27:04.813Z,24.80
2018-12-13T18:29:36.829Z,23.57
2018-12-13T18:32:07.946Z,23.27
2018-12-13T18:34:39.395Z,25.90
2018-12-13T18:37:10.373Z,26.52
2018-12-13T18:39:41.298Z,22.55
2018-12-13T18:42:12.314Z,33.73
2018-12-13T18:44:43.553Z,26.57
2018-12-13T18:47:14.565Z,26.35
2018-12-13T18:49:45.693Z,27.32
2018-12-13T18:52:16.822Z,28.65
2018-12-13T18:54:47.686Z,26.17
2018-12-13T18:57:19.058Z,23.55
2018-12-13T18:59:50.990Z,27.02
2018-12-13T19:02:23.196Z,25.72
2018-12-13T19:04:54.410Z,23.80
2018-12-13T19:07:25.885Z,25.10
2018-12-13T19:09:56.806Z,26.85
2018-12-13T19:12:28.567Z,24.25
2018-12-13T19:14:59.483Z,29.37
2018-12-13T19:17:30.383Z,26.73
2018-12-13T19:20:01.266Z,23.85
2018-12-13T19:22:33.256Z,22.70
2018-12-13T19:25:05.718Z,22.73
2018-12-13T19:27:37.897Z,23.57
2018-12-13T19:30:11.009Z,25.50
2018-12-13T19:32:41.927Z,27.02
2018-12-13T19:35:19.211Z,23.35
2018-12-13T19:37:45.750Z,33.18
2018-12-13T19:40:16.698Z,19.57
2018-12-13T19:42:47.726Z,20.50
2018-12-13T19:45:18.747Z,22.05
2018-12-13T19:47:50.430Z,26.62
2018-12-13T19:50:21.348Z,26.60
2018-12-13T19:52:52.707Z,24.82
2018-12-13T19:55:23.686Z,24.63
2018-12-13T19:57:54.690Z,23.38
2018-12-13T20:00:25.589Z,23.90
2018-12-13T20:02:56.970Z,26.07
2018-12-13T20:05:29.034Z,24.45
2018-12-13T20:08:00.306Z,25.32
2018-12-13T20:10:31.254Z,26.73
2018-12-13T20:13:02.142Z,23.42
2018-12-13T20:15:33.070Z,25.80
2018-12-13T20:18:03.958Z,24.45
2018-12-13T20:20:35.161Z,26.05
2018-12-13T20:23:06.090Z,24.98
2018-12-13T20:25:37.445Z,24.87
2018-12-13T20:28:08.470Z,22.70
2018-12-13T20:30:40.670Z,24.80
2018-12-13T20:33:11.687Z,30.37
2018-12-13T20:35:42.724Z,25.55
2018-12-13T20:38:14.874Z,23.62
2018-12-13T20:40:46.986Z,26.73
2018-12-13T20:43:18.725Z,24.25
2018-12-13T20:45:49.641Z,25.32
2018-12-13T20:48:20.521Z,26.15
2018-12-13T20:50:51.431Z,24.27
2018-12-13T20:53:22.394Z,28.12
2018-12-13T20:55:53.319Z,26.95
2018-12-13T20:58:24.279Z,24.80
2018-12-13T21:00:55.196Z,25.55
2018-12-13T21:03:26.035Z,28.42
2018-12-13T21:05:57.094Z,26.00
2018-12-13T21:08:28.765Z,23.30
2018-12-13T21:10:59.689Z,27.73
2018-12-13T21:13:30.550Z,32.33
2018-12-13T21:16:02.331Z,31.05
2018-12-13T21:18:34.023Z,29.50
2018-12-13T21:21:05.333Z,31.33
2018-12-13T21:23:36.198Z,29.98
2018-12-13T21:26:07.054Z,35.17
2018-12-13T21:28:38.879Z,28.87
2018-12-13T21:31:09.749Z,32.98
2018-12-13T21:33:40.910Z,28.50
2018-12-13T21:36:11.787Z,31.48
2018-12-13T21:38:42.700Z,26.33
2018-12-13T21:41:13.817Z,32.45
2018-12-13T21:43:45.058Z,28.17
2018-12-13T21:46:15.962Z,28.07
2018-12-13T21:48:46.855Z,26.95
2018-12-13T21:51:18.239Z,27.90
2018-12-13T21:53:49.082Z,27.62
2018-12-13T21:56:19.957Z,26.77
2018-12-13T21:58:50.827Z,27.00
2018-12-13T22:01:21.744Z,27.87
2018-12-13T22:03:52.713Z,31.27
2018-12-13T22:06:23.706Z,29.87
2018-12-13T22:08:54.605Z,25.02
2018-12-13T22:11:25.499Z,28.30
2018-12-13T22:13:56.371Z,30.70
2018-12-13T22:16:28.378Z,30.77
2018-12-13T22:18:59.263Z,25.27
2018-12-13T22:21:30.415Z,28.75
2018-12-13T22:24:01.365Z,26.68
2018-12-13T22:26:33.206Z,27.25
2018-12-13T22:29:04.277Z,29.75
2018-12-13T22:31:35.507Z,26.60
2018-12-13T22:34:06.405Z,26.55
2018-12-13T22:36:38.228Z,30.35
2018-12-13T22:39:09.974Z,28.02
2018-12-13T22:41:40.919Z,31.42
2018-12-13T22:44:12.636Z,29.75
2018-12-13T22:46:43.587Z,25.48
2018-12-13T22:49:14.423Z,28.50
2018-12-13T22:51:45.353Z,28.92
2018-12-13T22:54:16.421Z,28.35
2018-12-13T22:56:47.279Z,28.75
2018-12-13T22:59:19.610Z,30.65
2018-12-13T23:01:50.525Z,27.07
2018-12-13T23:04:22.622Z,26.45
2018-12-13T23:06:53.526Z,29.02
2018-12-13T23:09:25.711Z,29.25
2018-12-13T23:11:58.066Z,27.65
2018-12-13T23:14:32.902Z,28.95
2018-12-13T23:17:03.837Z,30.80
2018-12-13T23:19:36.028Z,27.93
2018-12-13T23:22:07.052Z,28.95
2018-12-13T23:24:38.215Z,31.50
2018-12-13T23:27:12.340Z,28.38
2018-12-13T23:29:43.948Z,28.95
2018-12-13T23:32:15.848Z,30.37
2018-12-13T23:34:46.861Z,30.27
2018-12-13T23:37:19.037Z,29.12
2018-12-13T23:39:49.975Z,28.77
2018-12-13T23:42:21.901Z,32.85
2018-12-13T23:44:52.837Z,32.15
2018-12-13T23:47:24.090Z,26.55
2018-12-13T23:49:56.056Z,28.62
2018-12-13T23:52:27.010Z,26.00
2018-12-13T23:54:58.074Z,30.70
2018-12-13T23:57:29.507Z,32.85
